Time;durP1;ratioP1;P1;durP2;ratioP2;P2;SDS_P1;SDS_P2;PMS_P1;PMS_P2;Temp;Humidity;BMP_temperature;BMP_pressure;BME280_temperature;BME280_humidity;BME280_pressure;Samples;Min_cycle;Max_cycle;Signal;HPM_P1;HPM_P2
2021/03/31 00:00:58;;;;;;;17.97;9.70;;;11.10;99.90;;;;;;5082996;28;20445;-61
2021/03/31 00:03:25;;;;;;;17.63;11.07;;;11.10;99.90;;;;;;5079599;28;20948;-61
2021/03/31 00:05:51;;;;;;;19.77;10.80;;;11.00;99.90;;;;;;5081486;28;20442;-59
2021/03/31 00:08:17;;;;;;;16.10;9.70;;;11.00;99.90;;;;;;5079086;28;20592;-61
2021/03/31 00:10:47;;;;;;;20.77;10.13;;;11.00;99.90;;;;;;5081732;28;20507;-63
2021/03/31 00:13:14;;;;;;;20.13;10.07;;;11.00;99.90;;;;;;5080357;28;20449;-62
2021/03/31 00:15:41;;;;;;;18.33;9.47;;;10.90;99.90;;;;;;5079947;28;21136;-62
2021/03/31 00:18:08;;;;;;;20.37;10.67;;;10.90;99.90;;;;;;5080144;28;20453;-62
2021/03/31 00:20:35;;;;;;;16.57;9.30;;;10.90;99.90;;;;;;5079273;28;21189;-62
2021/03/31 00:23:04;;;;;;;19.03;10.30;;;10.90;99.90;;;;;;5081052;28;20549;-62
2021/03/31 00:25:30;;;;;;;15.80;9.30;;;10.90;99.90;;;;;;5079029;28;20875;-62
2021/03/31 00:27:57;;;;;;;18.30;9.63;;;10.90;99.90;;;;;;5081572;28;20455;-62
2021/03/31 00:30:25;;;;;;;20.70;10.43;;;10.90;99.90;;;;;;5079797;28;20511;-62
2021/03/31 00:32:51;;;;;;;19.80;10.20;;;10.80;99.90;;;;;;5081794;28;20447;-62
2021/03/31 00:35:18;;;;;;;18.20;9.67;;;10.80;99.90;;;;;;5080372;28;20834;-62
2021/03/31 00:37:44;;;;;;;18.67;9.07;;;10.70;99.90;;;;;;5080941;28;20965;-62
2021/03/31 00:40:16;;;;;;;18.30;9.53;;;10.70;99.90;;;;;;5082517;28;20443;-62
2021/03/31 00:42:42;;;;;;;17.23;10.30;;;10.70;99.90;;;;;;5079958;28;20474;-62
2021/03/31 00:45:11;;;;;;;17.73;9.40;;;10.70;99.90;;;;;;5080486;28;20446;-62
2021/03/31 00:47:38;;;;;;;13.97;8.57;;;10.60;99.90;;;;;;5080933;28;20445;-61
2021/03/31 00:50:06;;;;;;;18.47;8.97;;;10.60;99.90;;;;;;5080086;28;20928;-62
2021/03/31 00:52:33;;;;;;;16.77;9.40;;;10.60;99.90;;;;;;5080338;28;21043;-63
2021/03/31 00:54:59;;;;;;;16.63;9.00;;;10.50;99.90;;;;;;5082463;28;20565;-60
2021/03/31 00:57:26;;;;;;;17.07;9.50;;;10.50;99.90;;;;;;5078842;28;20453;-63
2021/03/31 00:59:52;;;;;;;16.90;8.43;;;10.50;99.90;;;;;;5081085;28;20452;-62
2021/03/31 01:02:20;;;;;;;14.53;8.60;;;10.40;99.90;;;;;;5080991;28;20443;-62
2021/03/31 01:04:46;;;;;;;16.43;9.03;;;10.40;99.90;;;;;;5078601;28;20558;-62
2021/03/31 01:07:12;;;;;;;15.00;8.47;;;10.30;99.90;;;;;;5083440;28;20470;-62
2021/03/31 01:09:39;;;;;;;14.17;8.40;;;10.30;99.90;;;;;;5078318;28;20461;-62
2021/03/31 01:12:14;;;;;;;14.67;7.93;;;10.30;99.90;;;;;;5082120;28;20542;-62
2021/03/31 01:15:00;;;;;;;17.27;8.03;;;10.20;99.90;;;;;;5085585;28;20482;-63
2021/03/31 01:17:30;;;;;;;16.23;8.40;;;10.20;99.90;;;;;;5082854;28;20954;-62
2021/03/31 01:20:38;;;;;;;15.83;8.00;;;10.20;99.90;;;;;;5083287;28;20457;-61
2021/03/31 01:23:40;;;;;;;15.10;9.20;;;10.10;99.90;;;;;;5083508;28;20445;-63
2021/03/31 01:26:10;;;;;;;15.27;9.10;;;10.10;99.90;;;;;;5079050;28;20442;-62
2021/03/31 01:29:00;;;;;;;13.50;7.53;;;10.10;99.90;;;;;;5091906;28;20998;-62
2021/03/31 01:31:38;;;;;;;17.13;8.33;;;10.00;99.90;;;;;;5074410;28;20866;-62
2021/03/31 01:34:37;;;;;;;14.03;7.47;;;10.00;99.90;;;;;;5100399;28;20438;-60
2021/03/31 01:37:10;;;;;;;16.00;8.33;;;9.90;99.90;;;;;;5098841;28;20583;-62
2021/03/31 01:39:40;;;;;;;14.73;8.20;;;9.90;99.90;;;;;;5101272;28;20467;-62
2021/03/31 01:42:09;;;;;;;14.90;7.67;;;9.90;99.90;;;;;;5103907;28;20433;-63
2021/03/31 01:44:37;;;;;;;14.60;6.57;;;9.80;99.90;;;;;;5096488;28;20453;-64
2021/03/31 01:47:05;;;;;;;12.33;6.63;;;9.80;99.90;;;;;;5104212;28;20449;-64
2021/03/31 01:49:33;;;;;;;15.20;8.10;;;9.80;99.90;;;;;;5099844;28;20457;-63
2021/03/31 01:52:01;;;;;;;14.27;7.77;;;9.80;99.90;;;;;;5098754;28;20441;-62
2021/03/31 01:54:31;;;;;;;12.50;6.60;;;9.70;99.90;;;;;;5100343;28;20556;-63
2021/03/31 01:56:58;;;;;;;15.73;7.43;;;9.70;99.90;;;;;;5103488;28;20464;-61
2021/03/31 01:59:25;;;;;;;14.27;6.73;;;9.70;99.90;;;;;;5102177;28;20962;-62
2021/03/31 02:01:53;;;;;;;14.90;6.87;;;9.70;99.90;;;;;;5094522;28;20449;-62
2021/03/31 02:04:20;;;;;;;15.73;7.10;;;9.60;99.90;;;;;;5102048;28;21026;-62
2021/03/31 02:06:48;;;;;;;13.13;6.40;;;9.60;99.90;;;;;;5100678;28;20487;-63
2021/03/31 02:09:16;;;;;;;14.10;6.83;;;9.60;99.90;;;;;;5090911;28;20446;-62
2021/03/31 02:11:44;;;;;;;13.93;6.20;;;9.50;99.90;;;;;;5100240;28;20454;-62
2021/03/31 02:14:15;;;;;;;14.97;6.77;;;9.50;99.90;;;;;;5103758;28;20434;-62
2021/03/31 02:16:43;;;;;;;12.87;7.27;;;9.50;99.90;;;;;;5102153;28;20488;-62
2021/03/31 02:19:13;;;;;;;13.17;6.80;;;9.50;99.90;;;;;;5100377;28;20430;-63
2021/03/31 02:21:42;;;;;;;13.83;6.90;;;9.50;99.90;;;;;;5100986;28;20883;-62
2021/03/31 02:24:13;;;;;;;11.83;6.27;;;9.50;99.90;;;;;;5100246;28;20457;-62
2021/03/31 02:26:39;;;;;;;16.00;5.57;;;9.50;99.90;;;;;;5100871;28;20978;-62
2021/03/31 02:29:07;;;;;;;17.60;6.93;;;9.50;99.90;;;;;;5101495;28;20453;-62
2021/03/31 02:31:34;;;;;;;16.07;7.23;;;9.40;99.90;;;;;;5103150;28;20446;-62
2021/03/31 02:34:02;;;;;;;14.53;7.23;;;9.40;99.90;;;;;;5104040;28;20441;-62
2021/03/31 02:36:29;;;;;;;12.07;5.40;;;9.40;99.90;;;;;;5099175;28;20588;-62
2021/03/31 02:38:56;;;;;;;13.30;6.13;;;9.40;99.90;;;;;;5107816;28;20446;-62
2021/03/31 02:41:23;;;;;;;12.00;5.93;;;9.40;99.90;;;;;;5100591;28;20820;-63
2021/03/31 02:43:52;;;;;;;14.73;6.13;;;9.40;99.90;;;;;;5095948;28;20451;-62
2021/03/31 02:46:20;;;;;;;11.20;5.47;;;9.40;99.90;;;;;;5096769;28;20454;-63
2021/03/31 02:48:49;;;;;;;15.90;7.20;;;9.40;99.90;;;;;;5101166;28;20490;-62
2021/03/31 02:51:17;;;;;;;11.73;6.00;;;9.40;99.90;;;;;;5103747;28;20441;-62
2021/03/31 02:53:43;;;;;;;12.33;6.20;;;9.40;99.90;;;;;;5104083;28;20441;-62
2021/03/31 02:56:11;;;;;;;14.13;6.60;;;9.30;99.90;;;;;;5100297;28;20481;-63
2021/03/31 02:58:39;;;;;;;14.83;5.90;;;9.30;99.90;;;;;;5100419;28;20452;-62
2021/03/31 03:01:07;;;;;;;13.60;5.60;;;9.30;99.90;;;;;;5101840;28;20446;-62
2021/03/31 03:03:34;;;;;;;12.87;6.70;;;9.20;99.90;;;;;;5102226;28;20536;-62
2021/03/31 03:06:02;;;;;;;12.50;5.87;;;9.30;99.90;;;;;;5103285;28;21019;-62
2021/03/31 03:08:29;;;;;;;13.97;6.13;;;9.20;99.90;;;;;;5097393;28;20544;-62
2021/03/31 03:10:58;;;;;;;11.73;5.87;;;9.20;99.90;;;;;;5099770;28;20452;-63
2021/03/31 03:13:26;;;;;;;11.50;5.60;;;9.20;99.90;;;;;;5098406;28;20445;-62
2021/03/31 03:15:54;;;;;;;15.87;6.07;;;9.10;99.90;;;;;;5102266;28;20479;-63
2021/03/31 03:18:20;;;;;;;14.27;5.90;;;9.10;99.90;;;;;;5099930;28;20445;-62
2021/03/31 03:20:47;;;;;;;12.37;6.00;;;9.10;99.90;;;;;;5102423;28;20441;-63
2021/03/31 03:23:16;;;;;;;18.43;6.53;;;9.10;99.90;;;;;;5101790;28;20538;-62
2021/03/31 03:25:42;;;;;;;12.20;5.73;;;9.00;99.90;;;;;;5102845;28;20446;-63
2021/03/31 03:28:09;;;;;;;11.90;5.30;;;9.00;99.90;;;;;;5096200;28;20453;-62
2021/03/31 03:30:36;;;;;;;13.25;6.43;;;9.00;99.90;;;;;;5100766;28;20439;-62
2021/03/31 03:33:05;;;;;;;14.07;5.60;;;9.00;99.90;;;;;;5100465;28;20195;-63
2021/03/31 03:35:32;;;;;;;12.27;7.10;;;9.00;99.90;;;;;;5097440;28;20985;-62
2021/03/31 03:37:59;;;;;;;13.57;5.97;;;9.00;99.90;;;;;;5098226;28;20955;-63
2021/03/31 03:40:27;;;;;;;12.20;5.07;;;9.00;99.90;;;;;;5101611;28;20488;-63
2021/03/31 03:42:54;;;;;;;13.50;5.13;;;9.00;99.90;;;;;;5097961;28;20458;-63
2021/03/31 03:45:23;;;;;;;10.80;5.43;;;9.00;99.90;;;;;;5097124;28;20779;-62
2021/03/31 03:47:51;;;;;;;13.90;5.47;;;9.00;99.90;;;;;;5072821;28;20442;-64
2021/03/31 03:50:19;;;;;;;16.43;5.33;;;8.90;99.90;;;;;;5073681;28;20504;-62
2021/03/31 03:52:50;;;;;;;12.30;4.70;;;8.90;99.90;;;;;;5091102;28;20460;-62
2021/03/31 03:55:19;;;;;;;12.30;5.43;;;8.90;99.90;;;;;;5083750;28;20485;-63
2021/03/31 03:57:45;;;;;;;13.03;4.97;;;8.90;99.90;;;;;;5072187;28;20443;-63
2021/03/31 04:00:14;;;;;;;13.47;5.33;;;8.90;99.90;;;;;;5071425;28;20491;-62
2021/03/31 04:02:41;;;;;;;17.40;6.00;;;8.90;99.90;;;;;;5072429;28;20498;-62
2021/03/31 04:05:08;;;;;;;13.03;5.77;;;8.90;99.90;;;;;;5072705;28;20451;-62
2021/03/31 04:07:35;;;;;;;14.30;6.00;;;8.90;99.90;;;;;;5072029;28;20443;-63
2021/03/31 04:10:04;;;;;;;14.20;5.90;;;8.90;99.90;;;;;;5071977;28;20454;-63
2021/03/31 04:12:31;;;;;;;13.73;5.33;;;8.90;99.90;;;;;;5072679;28;20585;-62
2021/03/31 04:14:58;;;;;;;12.33;4.60;;;8.90;99.90;;;;;;5090589;28;21023;-50
2021/03/31 04:17:26;;;;;;;10.65;3.35;;;8.90;99.90;;;;;;5090513;28;20519;-48
2021/03/31 04:19:54;;;;;;;16.60;4.47;;;10.60;99.90;;;;;;5074721;28;20208;-48
2021/03/31 04:22:21;;;;;;;12.70;4.90;;;11.40;99.90;;;;;;5072046;28;20965;-62
2021/03/31 04:24:49;;;;;;;19.23;4.90;;;11.20;99.90;;;;;;5088005;28;20450;-61
2021/03/31 04:27:17;;;;;;;11.20;4.10;;;10.90;99.90;;;;;;5091973;28;20474;-62
2021/03/31 04:29:46;;;;;;;13.10;5.20;;;10.60;99.90;;;;;;5077296;28;20851;-62
2021/03/31 04:32:16;;;;;;;13.77;5.10;;;10.40;99.90;;;;;;5073192;28;21023;-63
2021/03/31 04:34:42;;;;;;;12.17;4.40;;;10.20;99.90;;;;;;5072069;28;20451;-62
2021/03/31 04:37:09;;;;;;;10.90;4.37;;;10.00;99.90;;;;;;5083012;28;20454;-63
2021/03/31 04:39:37;;;;;;;15.20;5.00;;;9.80;99.90;;;;;;5092281;28;20528;-63
2021/03/31 04:42:05;;;;;;;15.40;4.83;;;9.70;99.90;;;;;;5081672;28;20600;-62
2021/03/31 04:44:32;;;;;;;11.87;4.60;;;9.50;99.90;;;;;;5072148;28;20506;-64
2021/03/31 04:46:58;;;;;;;11.40;4.40;;;9.50;99.90;;;;;;5072196;28;20508;-65
2021/03/31 04:49:24;;;;;;;12.77;4.90;;;9.40;99.90;;;;;;5084523;28;20476;-63
2021/03/31 04:51:51;;;;;;;22.70;4.47;;;9.30;99.90;;;;;;5091949;28;20958;-62
2021/03/31 04:54:17;;;;;;;12.20;4.37;;;9.20;99.90;;;;;;5092112;28;20604;-64
2021/03/31 04:56:43;;;;;;;13.30;5.40;;;9.20;99.90;;;;;;5091520;28;20643;-64
2021/03/31 04:59:10;;;;;;;13.40;4.70;;;9.10;99.90;;;;;;5092005;28;20524;-62
2021/03/31 05:01:37;;;;;;;14.43;5.30;;;9.10;99.90;;;;;;5086971;28;20496;-63
2021/03/31 05:04:04;;;;;;;14.90;5.13;;;9.00;99.90;;;;;;5071685;28;20500;-64
2021/03/31 05:06:30;;;;;;;13.97;5.53;;;9.00;99.90;;;;;;5071649;28;20541;-62
2021/03/31 05:08:56;;;;;;;15.83;4.60;;;9.00;99.90;;;;;;5071686;28;20528;-63
2021/03/31 05:11:23;;;;;;;11.10;4.33;;;8.90;99.90;;;;;;5072069;28;20981;-65
2021/03/31 05:13:49;;;;;;;13.93;4.53;;;8.90;99.90;;;;;;5075631;28;20587;-63
2021/03/31 05:16:16;;;;;;;16.23;5.30;;;8.80;99.90;;;;;;5075215;28;20963;-61
2021/03/31 05:18:42;;;;;;;11.40;4.20;;;8.80;99.90;;;;;;5092417;28;20450;-62
2021/03/31 05:21:09;;;;;;;13.40;4.90;;;8.80;99.90;;;;;;5095944;28;20528;-63
2021/03/31 05:23:35;;;;;;;15.83;4.53;;;8.80;99.90;;;;;;5095663;28;20545;-63
2021/03/31 05:26:02;;;;;;;13.67;5.10;;;8.80;99.90;;;;;;5095270;28;21012;-63
2021/03/31 05:28:28;;;;;;;17.20;4.70;;;8.80;99.90;;;;;;5094750;28;20545;-62
2021/03/31 05:30:55;;;;;;;15.00;4.80;;;8.80;99.90;;;;;;5095619;28;20524;-62
2021/03/31 05:33:22;;;;;;;17.30;5.37;;;8.80;99.90;;;;;;5095414;28;20524;-62
2021/03/31 05:35:48;;;;;;;13.50;4.20;;;8.80;99.90;;;;;;5095086;28;20986;-62
2021/03/31 05:38:14;;;;;;;14.57;4.50;;;8.80;99.90;;;;;;5095568;28;20456;-64
2021/03/31 05:40:41;;;;;;;16.50;4.77;;;8.90;99.90;;;;;;5094909;28;20492;-61
2021/03/31 05:43:07;;;;;;;12.70;4.90;;;8.90;99.90;;;;;;5095820;28;20477;-64
2021/03/31 05:45:34;;;;;;;14.53;4.60;;;8.90;99.90;;;;;;5094985;28;20973;-62
2021/03/31 05:48:01;;;;;;;15.70;5.10;;;9.00;99.90;;;;;;5095106;28;20442;-61
2021/03/31 05:50:28;;;;;;;13.50;4.70;;;9.00;99.90;;;;;;5094941;28;20537;-63
2021/03/31 05:52:55;;;;;;;13.70;5.67;;;9.00;99.90;;;;;;5095469;28;20480;-62
2021/03/31 05:55:22;;;;;;;12.53;4.80;;;9.10;99.90;;;;;;5094630;28;20573;-65
2021/03/31 05:57:48;;;;;;;15.20;4.73;;;9.10;99.90;;;;;;5079624;28;20474;-62
2021/03/31 06:00:16;;;;;;;15.80;6.17;;;9.20;99.90;;;;;;5083720;28;20466;-64
2021/03/31 06:02:46;;;;;;;12.50;4.47;;;9.30;99.90;;;;;;5074117;28;20439;-62
2021/03/31 06:05:13;;;;;;;14.30;4.97;;;9.30;99.90;;;;;;5078915;28;21010;-62
2021/03/31 06:07:42;;;;;;;13.23;4.23;;;9.40;99.90;;;;;;5094499;28;20442;-59
2021/03/31 06:10:11;;;;;;;13.53;4.90;;;9.40;99.90;;;;;;5091625;28;20443;-62
2021/03/31 06:12:40;;;;;;;14.33;4.90;;;9.50;99.90;;;;;;5075605;28;20451;-62
2021/03/31 06:15:22;;;;;;;15.17;5.17;;;9.60;99.90;;;;;;5078994;28;20512;-62
2021/03/31 06:17:51;;;;;;;12.40;4.80;;;9.70;99.90;;;;;;5105317;28;20445;-62
2021/03/31 06:20:48;;;;;;;14.43;5.00;;;9.70;99.90;;;;;;5097330;28;20450;-63
2021/03/31 06:26:01;;;;;;;14.53;5.00;;;9.90;99.90;;;;;;5087485;28;20524;-63
2021/03/31 06:28:30;;;;;;;17.93;5.07;;;10.00;99.90;;;;;;5103454;28;20548;-62
2021/03/31 06:31:10;;;;;;;14.60;5.73;;;10.10;99.90;;;;;;5085436;28;20449;-63
2021/03/31 06:33:38;;;;;;;17.13;5.07;;;10.20;99.90;;;;;;5084622;28;20442;-62
2021/03/31 06:36:06;;;;;;;13.50;5.90;;;10.30;99.90;;;;;;5085325;28;20573;-61
2021/03/31 06:38:36;;;;;;;16.10;6.17;;;10.40;99.90;;;;;;5081766;28;20439;-63
2021/03/31 06:41:14;;;;;;;17.20;5.93;;;10.50;99.90;;;;;;5081792;28;20440;-63
2021/03/31 06:43:48;;;;;;;14.60;5.30;;;10.70;99.90;;;;;;5075261;28;20443;-61
2021/03/31 06:46:28;;;;;;;16.97;5.30;;;10.80;99.90;;;;;;5086487;28;20830;-59
2021/03/31 06:48:55;;;;;;;16.60;5.30;;;10.90;99.90;;;;;;5084265;28;20435;-60
2021/03/31 06:51:25;;;;;;;14.33;6.50;;;11.00;99.90;;;;;;5084082;28;20450;-59
2021/03/31 06:53:53;;;;;;;16.80;5.33;;;11.20;99.90;;;;;;5083654;28;20526;-61
2021/03/31 06:56:27;;;;;;;15.20;5.40;;;11.30;99.90;;;;;;5092335;28;20481;-62
2021/03/31 06:59:01;;;;;;;15.60;5.70;;;11.40;99.90;;;;;;5095177;28;20525;-60
2021/03/31 07:01:32;;;;;;;18.40;5.57;;;11.60;99.90;;;;;;5095698;28;20450;-60
2021/03/31 07:04:02;;;;;;;16.60;5.33;;;11.70;99.90;;;;;;5099348;28;20500;-60
2021/03/31 07:06:29;;;;;;;13.10;5.83;;;11.90;99.90;;;;;;5103624;28;20567;-60
2021/03/31 07:08:56;;;;;;;16.83;5.90;;;12.10;99.90;;;;;;5106848;28;20861;-61
2021/03/31 07:11:40;;;;;;;24.80;8.00;;;12.20;99.90;;;;;;5079986;28;20933;-62
2021/03/31 07:14:08;;;;;;;21.90;6.47;;;12.40;99.90;;;;;;5107054;28;20525;-60
2021/03/31 07:16:35;;;;;;;14.27;6.33;;;12.60;99.90;;;;;;5084444;28;20867;-61
2021/03/31 07:19:03;;;;;;;16.93;6.57;;;12.80;99.90;;;;;;5101844;28;20552;-63
2021/03/31 07:21:31;;;;;;;14.33;5.27;;;13.00;99.90;;;;;;5091276;28;20511;-61
2021/03/31 07:23:58;;;;;;;11.47;5.20;;;13.20;99.90;;;;;;5098906;28;20808;-61
2021/03/31 07:26:25;;;;;;;13.53;5.90;;;13.40;99.90;;;;;;5099174;28;20452;-60
2021/03/31 07:28:53;;;;;;;10.80;5.87;;;13.70;99.90;;;;;;5089681;28;20460;-62
2021/03/31 07:31:24;;;;;;;10.33;4.60;;;13.90;99.90;;;;;;5092873;28;20461;-61
2021/03/31 07:34:06;;;;;;;10.00;4.60;;;14.40;99.90;;;;;;5074733;28;20443;-62
2021/03/31 07:36:33;;;;;;;11.90;4.90;;;15.50;99.90;;;;;;5087085;28;20488;-61
2021/03/31 07:39:03;;;;;;;13.97;6.00;;;16.90;99.90;;;;;;5093017;28;20446;-61
2021/03/31 07:41:32;;;;;;;8.17;4.13;;;18.00;99.90;;;;;;5092468;28;20620;-61
2021/03/31 07:43:59;;;;;;;13.80;5.60;;;19.10;99.90;;;;;;5093166;28;20803;-60
2021/03/31 07:46:31;;;;;;;12.17;5.13;;;20.10;94.50;;;;;;5090530;28;20452;-61
2021/03/31 07:48:58;;;;;;;9.30;5.10;;;21.10;87.40;;;;;;5088145;28;20465;-62
2021/03/31 07:51:26;;;;;;;10.30;5.40;;;21.70;76.10;;;;;;5092179;28;20894;-62
2021/03/31 07:53:54;;;;;;;8.87;4.40;;;22.90;72.40;;;;;;5092460;28;20446;-61
2021/03/31 07:56:24;;;;;;;10.40;5.10;;;24.10;67.20;;;;;;5088302;28;20490;-62
2021/03/31 07:59:21;;;;;;;11.00;4.83;;;25.50;64.50;;;;;;5091837;28;20822;-63
2021/03/31 08:01:51;;;;;;;12.00;4.93;;;26.50;58.50;;;;;;4990386;28;20458;-63
2021/03/31 08:04:19;;;;;;;7.87;4.73;;;27.10;54.00;;;;;;5065631;28;20447;-61
2021/03/31 08:06:47;;;;;;;8.50;4.43;;;27.40;51.20;;;;;;5079121;28;20455;-61
2021/03/31 08:09:21;;;;;;;9.57;4.90;;;27.90;53.30;;;;;;5092392;28;20445;-61
2021/03/31 08:12:02;;;;;;;10.77;5.10;;;27.80;47.80;;;;;;5098046;28;20488;-62
2021/03/31 08:14:46;;;;;;;9.77;4.83;;;28.30;48.60;;;;;;5088794;28;20506;-61
2021/03/31 08:17:15;;;;;;;9.00;5.07;;;28.90;47.80;;;;;;5100166;28;20477;-62
2021/03/31 08:19:44;;;;;;;10.27;5.00;;;29.50;45.30;;;;;;5102235;28;20473;-61
2021/03/31 08:22:26;;;;;;;7.33;4.20;;;29.90;46.60;;;;;;5098999;28;20450;-62
2021/03/31 08:24:55;;;;;;;8.17;4.40;;;29.30;44.20;;;;;;5106326;28;20596;-62
2021/03/31 08:27:22;;;;;;;7.77;4.77;;;28.20;44.60;;;;;;5090271;28;20761;-61
2021/03/31 08:29:53;;;;;;;7.90;4.20;;;28.70;43.30;;;;;;5092504;28;20536;-61
2021/03/31 08:32:20;;;;;;;13.77;5.03;;;29.50;45.40;;;;;;5075802;28;20454;-62
2021/03/31 08:34:47;;;;;;;10.00;5.00;;;31.00;43.30;;;;;;5071937;28;20929;-62
2021/03/31 08:37:29;;;;;;;9.30;4.83;;;31.50;41.60;;;;;;5072153;28;20573;-61
2021/03/31 08:40:01;;;;;;;10.17;5.13;;;31.30;40.90;;;;;;5085171;28;20525;-63
2021/03/31 08:42:28;;;;;;;14.50;5.40;;;31.60;41.40;;;;;;5079622;28;20545;-63
2021/03/31 08:44:56;;;;;;;9.77;5.20;;;31.40;41.60;;;;;;5071747;28;20530;-62
2021/03/31 08:47:25;;;;;;;8.63;5.17;;;31.90;39.60;;;;;;5087507;28;20530;-63
2021/03/31 08:49:58;;;;;;;10.77;4.90;;;32.70;40.30;;;;;;5099013;28;20453;-61
2021/03/31 08:52:30;;;;;;;8.90;4.63;;;32.80;39.90;;;;;;5087917;28;20560;-61
2021/03/31 08:54:57;;;;;;;20.33;12.10;;;33.30;39.70;;;;;;5078317;28;20451;-62
2021/03/31 08:57:24;;;;;;;10.20;4.67;;;34.00;38.40;;;;;;5095695;28;20998;-63
2021/03/31 08:59:54;;;;;;;7.60;4.47;;;35.00;37.70;;;;;;5096624;28;20950;-63
2021/03/31 09:02:21;;;;;;;8.20;4.43;;;35.70;41.10;;;;;;5090987;28;20470;-62
2021/03/31 09:04:50;;;;;;;7.57;4.47;;;35.80;38.20;;;;;;5084789;28;20442;-61
2021/03/31 09:07:16;;;;;;;10.63;4.40;;;35.40;36.80;;;;;;5097664;28;20540;-61
2021/03/31 09:09:46;;;;;;;10.20;5.00;;;35.90;35.50;;;;;;5095947;28;20541;-62
2021/03/31 09:12:14;;;;;;;9.67;4.30;;;36.10;37.70;;;;;;5098317;28;20475;-62
2021/03/31 09:14:42;;;;;;;7.97;5.00;;;36.30;34.10;;;;;;5094132;28;20480;-62
2021/03/31 09:17:11;;;;;;;10.90;4.80;;;36.40;34.20;;;;;;5092286;28;20480;-63
2021/03/31 09:19:39;;;;;;;6.90;4.60;;;36.00;36.40;;;;;;5112041;28;20446;-63
2021/03/31 09:22:07;;;;;;;10.50;4.20;;;35.90;36.40;;;;;;5104017;28;20442;-63
2021/03/31 09:24:33;;;;;;;9.43;4.73;;;35.70;36.20;;;;;;5100686;28;20553;-63
2021/03/31 09:27:01;;;;;;;8.77;4.60;;;35.10;35.60;;;;;;5094851;28;20494;-63
2021/03/31 09:29:29;;;;;;;8.17;4.80;;;35.30;34.20;;;;;;5108371;28;20448;-62
2021/03/31 09:31:57;;;;;;;8.43;4.93;;;36.40;36.30;;;;;;5098392;28;20472;-63
2021/03/31 09:34:25;;;;;;;8.20;4.50;;;36.10;34.10;;;;;;5090799;28;21232;-64
2021/03/31 09:37:02;;;;;;;11.47;4.00;;;36.80;34.80;;;;;;5097862;28;20474;-62
2021/03/31 09:39:54;;;;;;;11.43;4.60;;;37.20;35.00;;;;;;5108338;28;20445;-63
2021/03/31 09:42:23;;;;;;;6.47;3.80;;;37.70;34.20;;;;;;5063285;28;20455;-63
2021/03/31 09:44:51;;;;;;;6.50;3.83;;;38.70;34.20;;;;;;5077224;28;20489;-62
2021/03/31 09:47:19;;;;;;;9.23;4.20;;;38.90;32.40;;;;;;5076334;28;20460;-63
2021/03/31 09:49:48;;;;;;;7.03;4.10;;;38.20;33.10;;;;;;5089292;28;20457;-63
2021/03/31 09:52:15;;;;;;;9.27;4.90;;;38.90;33.70;;;;;;5085979;28;20618;-62
2021/03/31 09:54:45;;;;;;;8.63;3.87;;;37.30;35.00;;;;;;5097108;28;20452;-62
2021/03/31 09:57:12;;;;;;;7.50;3.70;;;38.50;32.20;;;;;;5101160;28;20572;-63
2021/03/31 09:59:40;;;;;;;8.50;4.03;;;38.80;31.10;;;;;;5094325;28;20446;-64
2021/03/31 10:02:07;;;;;;;8.00;4.13;;;39.40;32.20;;;;;;5091919;28;20474;-63
2021/03/31 10:04:36;;;;;;;7.23;4.03;;;40.20;33.00;;;;;;5090336;28;20541;-63
2021/03/31 10:07:16;;;;;;;8.83;4.67;;;41.20;30.70;;;;;;5094049;28;20492;-64
2021/03/31 10:09:44;;;;;;;6.70;3.57;;;41.30;31.10;;;;;;5081272;28;20454;-62
2021/03/31 10:12:12;;;;;;;7.60;4.27;;;41.90;31.30;;;;;;5075053;28;20451;-64
2021/03/31 10:14:47;;;;;;;12.00;4.37;;;42.00;30.00;;;;;;5078172;28;21003;-64
2021/03/31 10:17:15;;;;;;;8.57;5.00;;;41.60;31.90;;;;;;5091429;28;20576;-64
2021/03/31 10:19:41;;;;;;;10.00;4.07;;;42.20;30.70;;;;;;5097628;28;20559;-64
2021/03/31 10:22:08;;;;;;;7.10;3.80;;;41.90;29.70;;;;;;5101732;28;20538;-63
2021/03/31 10:24:40;;;;;;;6.47;3.70;;;42.00;30.70;;;;;;5104636;28;20453;-64
2021/03/31 10:27:08;;;;;;;10.00;3.90;;;41.30;29.90;;;;;;5100750;28;20442;-64
2021/03/31 10:29:36;;;;;;;8.20;3.90;;;42.20;28.80;;;;;;5101672;28;20460;-63
2021/03/31 10:32:03;;;;;;;9.70;4.27;;;42.20;28.30;;;;;;5097041;28;20468;-63
2021/03/31 10:34:40;;;;;;;7.60;3.80;;;41.60;28.90;;;;;;5100399;28;20843;-63
2021/03/31 10:37:13;;;;;;;9.60;3.93;;;41.50;29.10;;;;;;5093119;28;20474;-65
2021/03/31 10:48:35;;;;;;;6.73;3.87;;;42.40;28.20;;;;;;5093970;28;20799;-64
2021/03/31 10:51:10;;;;;;;6.53;3.87;;;41.30;27.90;;;;;;5092910;28;20507;-65
2021/03/31 10:53:41;;;;;;;13.93;12.07;;;41.50;28.60;;;;;;5093870;28;20453;-64
2021/03/31 10:56:09;;;;;;;9.00;4.13;;;41.50;28.20;;;;;;5089056;28;20563;-63
2021/03/31 10:58:35;;;;;;;8.47;7.10;;;42.50;29.40;;;;;;5082726;28;20450;-63
2021/03/31 11:01:02;;;;;;;9.80;5.70;;;42.00;30.10;;;;;;5073350;28;20447;-64
2021/03/31 11:03:28;;;;;;;7.00;4.00;;;43.10;29.40;;;;;;5077253;28;20478;-64
2021/03/31 11:05:55;;;;;;;8.27;4.40;;;43.70;27.70;;;;;;5073846;28;21048;-63
2021/03/31 11:08:22;;;;;;;7.00;4.00;;;43.60;29.10;;;;;;5073264;28;20470;-63
2021/03/31 11:10:49;;;;;;;7.57;4.00;;;43.20;28.00;;;;;;5080480;28;20526;-63
2021/03/31 11:13:26;;;;;;;7.87;3.60;;;42.60;30.00;;;;;;5102275;28;20922;-63
2021/03/31 11:15:55;;;;;;;183.47;166.57;;;42.10;27.80;;;;;;5105377;28;20506;-64
2021/03/31 11:18:26;;;;;;;9.60;6.53;;;43.00;28.40;;;;;;5113681;28;20449;-66
2021/03/31 11:21:06;;;;;;;12.93;9.17;;;44.50;29.30;;;;;;5095439;28;20502;-63
2021/03/31 11:26:17;;;;;;;10.10;6.50;;;44.20;28.30;;;;;;5085639;28;20432;-63
2021/03/31 11:28:44;;;;;;;24.17;21.23;;;44.80;27.00;;;;;;5089975;28;20541;-64
2021/03/31 11:31:11;;;;;;;6.33;3.53;;;44.60;29.60;;;;;;5092779;28;20533;-63
2021/03/31 11:33:38;;;;;;;8.23;3.93;;;44.90;27.90;;;;;;5092601;28;20446;-63
2021/03/31 11:36:05;;;;;;;7.17;3.70;;;42.80;26.80;;;;;;5092645;28;20462;-63
2021/03/31 11:38:31;;;;;;;8.57;4.47;;;42.20;27.60;;;;;;5073361;28;20821;-64
2021/03/31 11:40:58;;;;;;;12.37;7.90;;;42.70;27.40;;;;;;5072881;28;20569;-62
2021/03/31 11:43:24;;;;;;;11.70;9.73;;;43.70;26.70;;;;;;5072780;28;20997;-63
2021/03/31 11:45:52;;;;;;;15.80;9.03;;;44.60;27.30;;;;;;5089169;28;20561;-63
2021/03/31 11:48:18;;;;;;;11.20;7.50;;;45.00;26.60;;;;;;5090701;28;20529;-65
2021/03/31 11:50:45;;;;;;;11.50;4.07;;;42.70;26.50;;;;;;5080646;28;20884;-67
2021/03/31 11:53:13;;;;;;;7.67;4.80;;;44.30;26.70;;;;;;5091923;28;20450;-64
2021/03/31 11:55:40;;;;;;;10.57;4.80;;;44.90;26.80;;;;;;5092073;28;20505;-66
2021/03/31 11:58:06;;;;;;;159.13;146.50;;;45.30;26.90;;;;;;5092531;28;20450;-63
2021/03/31 12:00:35;;;;;;;21.50;19.50;;;44.70;27.10;;;;;;5085604;28;20541;-66
2021/03/31 12:03:03;;;;;;;174.67;159.70;;;45.30;28.00;;;;;;5092784;28;20469;-65
2021/03/31 12:05:30;;;;;;;7.67;4.50;;;45.60;26.20;;;;;;5072907;28;20530;-66
2021/03/31 12:07:56;;;;;;;7.30;3.70;;;45.20;25.90;;;;;;5071917;28;20553;-64
2021/03/31 12:10:23;;;;;;;6.67;3.80;;;45.60;27.40;;;;;;5089168;28;20486;-63
2021/03/31 12:12:49;;;;;;;7.13;3.90;;;45.00;26.20;;;;;;5092065;28;20533;-65
2021/03/31 12:15:16;;;;;;;7.13;3.50;;;44.90;27.00;;;;;;5072541;28;20471;-63
2021/03/31 12:17:43;;;;;;;7.20;3.30;;;45.20;25.90;;;;;;5080111;28;20454;-64
2021/03/31 12:20:13;;;;;;;6.70;3.90;;;46.30;26.80;;;;;;5091584;28;20531;-64
2021/03/31 12:22:41;;;;;;;6.30;3.70;;;45.60;27.70;;;;;;5082462;28;20451;-63
2021/03/31 12:25:08;;;;;;;9.17;4.03;;;46.40;27.20;;;;;;5074914;28;20555;-63
2021/03/31 12:27:36;;;;;;;7.47;3.07;;;47.10;26.00;;;;;;5091739;28;20502;-63
2021/03/31 12:30:04;;;;;;;9.93;2.93;;;47.30;26.70;;;;;;5089950;28;20854;-64
2021/03/31 12:32:30;;;;;;;8.20;3.60;;;47.00;25.80;;;;;;5065321;28;20534;-64
2021/03/31 12:34:57;;;;;;;8.23;3.13;;;46.40;27.10;;;;;;5077133;28;20890;-65
2021/03/31 12:37:24;;;;;;;5.40;3.13;;;47.50;26.10;;;;;;5071643;28;20541;-64
2021/03/31 12:39:51;;;;;;;6.43;3.00;;;46.30;25.10;;;;;;5088945;28;20873;-63
2021/03/31 12:42:18;;;;;;;7.43;2.63;;;46.90;26.60;;;;;;5091940;28;20529;-64
2021/03/31 12:44:44;;;;;;;4.93;2.40;;;45.60;26.40;;;;;;5082833;28;20546;-65
2021/03/31 12:47:14;;;;;;;6.33;2.80;;;46.60;25.10;;;;;;5084350;28;21042;-64
2021/03/31 12:49:41;;;;;;;6.50;2.80;;;47.30;27.20;;;;;;5103935;28;20453;-64
2021/03/31 12:52:11;;;;;;;5.60;2.57;;;47.40;26.10;;;;;;5091840;28;20540;-64
2021/03/31 12:54:39;;;;;;;8.50;2.70;;;48.20;28.20;;;;;;5081789;28;20462;-64
2021/03/31 12:57:07;;;;;;;6.50;2.60;;;47.10;25.70;;;;;;5088292;28;20994;-65
2021/03/31 12:59:34;;;;;;;5.67;3.03;;;46.30;26.30;;;;;;5090567;28;20477;-67
2021/03/31 13:02:00;;;;;;;5.53;2.53;;;45.70;25.00;;;;;;5083313;28;20884;-64
2021/03/31 13:04:27;;;;;;;7.70;2.67;;;46.50;25.10;;;;;;5092727;28;20676;-64
2021/03/31 13:06:53;;;;;;;9.67;3.30;;;45.80;25.90;;;;;;5097385;28;20689;-65